Wetterdaten: September 2009
Datum Temp Feuchte Luftdruck Regen Wind Richtung Sonnenschein UV Solar Windben
01.09.2009 19,4 C 74 % 1010,7 hPa 3,6 l/m 7,1 km/h S 7,08 h 2,8 UV-I 299 W/m 12,1 km/h
02.09.2009 14,4 C 82 % 1012,1 hPa 0,0 l/m 3,0 km/h S 4,75 h 1,9 UV-I 237 W/m 6,4 km/h
03.09.2009 14,3 C 75 % 1001,5 hPa 4,0 l/m 13,2 km/h S 1,67 h 1,9 UV-I 189 W/m 24,1 km/h
04.09.2009 12,2 C 82 % 1005,8 hPa 1,8 l/m 13,0 km/h S 2,83 h 1,5 UV-I 174 W/m 22,9 km/h
05.09.2009 12,3 C 88 % 1018,0 hPa 14,0 l/m 7,4 km/h W-NW 2,25 h 1,5 UV-I 180 W/m 17,7 km/h
06.09.2009 11,7 C 90 % 1023,4 hPa 0,2 l/m 2,6 km/h S 0,17 h 1,1 UV-I 97 W/m 6,9 km/h
07.09.2009 13,9 C 83 % 1022,3 hPa 0,0 l/m 1,5 km/h S 8,33 h 2,4 UV-I 348 W/m 4,0 km/h
08.09.2009 17,8 C 67 % 1022,5 hPa 0,0 l/m 6,2 km/h S 10,00 h 2,5 UV-I 365 W/m 8,9 km/h
09.09.2009 17,6 C 79 % 1024,3 hPa 0,0 l/m 6,4 km/h S 6,92 h 2,1 UV-I 288 W/m 12,4 km/h
10.09.2009 14,4 C 83 % 1029,8 hPa 0,0 l/m 6,8 km/h N 0,25 h 1,3 UV-I 125 W/m 13,7 km/h
11.09.2009 11,9 C 85 % 1030,5 hPa 0,0 l/m 2,7 km/h N-NO 5,17 h 1,9 UV-I 265 W/m 4,8 km/h
12.09.2009 12,4 C 85 % 1025,1 hPa 0,0 l/m 2,0 km/h N-NW 3,08 h 1,9 UV-I 230 W/m 4,4 km/h
13.09.2009 10,9 C 94 % 1018,7 hPa 3,4 l/m 8,6 km/h N-NW 0,58 h 1,1 UV-I 102 W/m 21,0 km/h
14.09.2009 11,5 C 94 % 1019,1 hPa 4,6 l/m 6,9 km/h N-NO 0,33 h 1,1 UV-I 113 W/m 14,9 km/h
15.09.2009 13,2 C 96 % 1018,1 hPa 26,4 l/m 3,9 km/h NO 0,00 h 0,8 UV-I 70 W/m 9,3 km/h
16.09.2009 14,8 C 91 % 1016,7 hPa 0,0 l/m 9,5 km/h N-NO 1,92 h 1,4 UV-I 157 W/m 17,3 km/h
17.09.2009 11,2 C 89 % 1019,4 hPa 0,0 l/m 3,2 km/h N-NO 6,08 h 2,2 UV-I 286 W/m 6,9 km/h
18.09.2009 13,6 C 84 % 1018,9 hPa 0,0 l/m 3,2 km/h SO 9,00 h 2,3 UV-I 320 W/m 7,6 km/h
19.09.2009 15,6 C 84 % 1015,9 hPa 0,0 l/m 2,5 km/h SO 8,92 h 2,1 UV-I 316 W/m 6,0 km/h
20.09.2009 16,3 C 89 % 1019,2 hPa 0,0 l/m 3,1 km/h NW 5,42 h 1,6 UV-I 237 W/m 8,1 km/h
21.09.2009 13,3 C 88 % 1024,5 hPa 0,0 l/m 2,2 km/h N-NW 6,75 h 1,8 UV-I 294 W/m 5,6 km/h
22.09.2009 14,6 C 75 % 1024,3 hPa 0,2 l/m 4,0 km/h S 7,25 h 1,9 UV-I 268 W/m 8,5 km/h
23.09.2009 15,0 C 89 % 1023,9 hPa 0,2 l/m 6,0 km/h S 0,25 h 1,5 UV-I 118 W/m 15,3 km/h
24.09.2009 12,3 C 87 % 1023,1 hPa 0,2 l/m 2,5 km/h W-NW 3,33 h 1,6 UV-I 189 W/m 5,2 km/h
25.09.2009 10,0 C 88 % 1026,3 hPa 0,0 l/m 0,8 km/h NW 3,50 h 1,4 UV-I 195 W/m 3,2 km/h
26.09.2009 10,7 C 87 % 1027,1 hPa 0,0 l/m 1,2 km/h SO 6,92 h 1,8 UV-I 279 W/m 2,8 km/h
27.09.2009 11,0 C 85 % 1025,6 hPa 0,2 l/m 2,4 km/h W-NW 8,17 h 1,8 UV-I 296 W/m 6,0 km/h
28.09.2009 12,7 C 88 % 1021,8 hPa 0,0 l/m 6,6 km/h S 0,42 h 1,1 UV-I 109 W/m 16,5 km/h
29.09.2009 13,0 C 96 % 1017,5 hPa 5,4 l/m 5,4 km/h NW 0,08 h 1,0 UV-I 55 W/m 15,7 km/h
30.09.2009 12,6 C 94 % 1015,6 hPa 3,4 l/m 6,1 km/h S 0,83 h 1,2 UV-I 133 W/m 13,6 km/h
Min-Datum 27.09.09 01.09.09 03.09.09 14 Tage 01.09.09 - - - - 01.09.09
Min-Zeit 07:25 14:40 09:25 - 20:00 - - - - 20:00
Minimum 5,6 C 38 % 998,7 hPa - 0,0 km/h - - - - 0,0 km/h
Max-Datum 01.09.09 08.09.09 11.09.09 15.09.09 03.09.09 - 08.09.09 01.09.09 04.09.09 05.09.09
Max-Zeit 14:45 06:30 08:45 09:15 14:40 - 18:20 13:20 12:45 08:30
Maximum 30,1 C 100 % 1032,3 hPa 26,4 l/m 24,9 km/h
S
- 9,92 h 4,9 UV-I 902 W/m 46,7 km/h
W
Durchschnitt 13,5 C 86 % 1020,0 hPa #67,6 l/m 5,0 km/h S #122:15 h 1,7 UV-I 211 W/m 10,7 km/h

Durchschnitt Minimum Temp.9,5 C
Durchschnitt Maximum Temp.18,8 C